sensor_id;sensor_type;location;lat;lon;timestamp;P1;durP1;ratioP1;P2;durP2;ratioP2
83717;SDS011;73701;52.234;21.288;2023-11-19T00:00:58;39.30;;;20.08;;
83717;SDS011;73701;52.234;21.288;2023-11-19T00:03:23;37.07;;;18.27;;
83717;SDS011;73701;52.234;21.288;2023-11-19T00:05:49;39.13;;;17.88;;
83717;SDS011;73701;52.234;21.288;2023-11-19T00:08:15;39.55;;;19.48;;
83717;SDS011;73701;52.234;21.288;2023-11-19T00:10:40;47.97;;;18.60;;
83717;SDS011;73701;52.234;21.288;2023-11-19T00:13:06;36.40;;;18.27;;
83717;SDS011;73701;52.234;21.288;2023-11-19T00:15:32;46.45;;;19.05;;
83717;SDS011;73701;52.234;21.288;2023-11-19T00:17:57;45.92;;;17.67;;
83717;SDS011;73701;52.234;21.288;2023-11-19T00:20:22;36.10;;;18.13;;
83717;SDS011;73701;52.234;21.288;2023-11-19T00:22:48;40.83;;;19.45;;
83717;SDS011;73701;52.234;21.288;2023-11-19T00:25:16;40.63;;;16.92;;
83717;SDS011;73701;52.234;21.288;2023-11-19T00:27:42;44.28;;;21.08;;
83717;SDS011;73701;52.234;21.288;2023-11-19T00:30:10;43.08;;;20.65;;
83717;SDS011;73701;52.234;21.288;2023-11-19T00:32:35;47.95;;;19.50;;
83717;SDS011;73701;52.234;21.288;2023-11-19T00:35:03;45.40;;;19.17;;
83717;SDS011;73701;52.234;21.288;2023-11-19T00:37:29;46.95;;;21.23;;
83717;SDS011;73701;52.234;21.288;2023-11-19T00:39:54;50.28;;;20.67;;
83717;SDS011;73701;52.234;21.288;2023-11-19T00:42:21;47.67;;;20.33;;
83717;SDS011;73701;52.234;21.288;2023-11-19T00:44:47;45.80;;;19.27;;
83717;SDS011;73701;52.234;21.288;2023-11-19T00:47:12;40.10;;;18.15;;
83717;SDS011;73701;52.234;21.288;2023-11-19T00:49:38;41.00;;;18.03;;
83717;SDS011;73701;52.234;21.288;2023-11-19T00:52:03;41.43;;;18.30;;
83717;SDS011;73701;52.234;21.288;2023-11-19T00:54:28;40.10;;;18.77;;
83717;SDS011;73701;52.234;21.288;2023-11-19T00:56:54;41.03;;;17.67;;
83717;SDS011;73701;52.234;21.288;2023-11-19T00:59:20;45.17;;;19.30;;
83717;SDS011;73701;52.234;21.288;2023-11-19T01:01:45;39.00;;;19.40;;
83717;SDS011;73701;52.234;21.288;2023-11-19T01:04:13;35.80;;;17.80;;
83717;SDS011;73701;52.234;21.288;2023-11-19T01:06:38;40.75;;;18.05;;
83717;SDS011;73701;52.234;21.288;2023-11-19T01:09:04;39.38;;;18.95;;
83717;SDS011;73701;52.234;21.288;2023-11-19T01:11:29;46.90;;;20.13;;
83717;SDS011;73701;52.234;21.288;2023-11-19T01:13:55;38.27;;;19.03;;
83717;SDS011;73701;52.234;21.288;2023-11-19T01:16:20;39.80;;;18.57;;
83717;SDS011;73701;52.234;21.288;2023-11-19T01:18:49;36.58;;;17.95;;
83717;SDS011;73701;52.234;21.288;2023-11-19T01:21:14;37.00;;;18.80;;
83717;SDS011;73701;52.234;21.288;2023-11-19T01:23:40;43.13;;;16.90;;
83717;SDS011;73701;52.234;21.288;2023-11-19T01:26:10;46.47;;;18.95;;
83717;SDS011;73701;52.234;21.288;2023-11-19T01:28:37;38.13;;;19.00;;
83717;SDS011;73701;52.234;21.288;2023-11-19T01:31:04;40.97;;;18.10;;
83717;SDS011;73701;52.234;21.288;2023-11-19T01:33:30;39.25;;;17.33;;
83717;SDS011;73701;52.234;21.288;2023-11-19T01:35:55;39.03;;;18.03;;
83717;SDS011;73701;52.234;21.288;2023-11-19T01:38:23;35.38;;;17.20;;
83717;SDS011;73701;52.234;21.288;2023-11-19T01:40:49;38.45;;;18.58;;
83717;SDS011;73701;52.234;21.288;2023-11-19T01:43:30;35.37;;;17.53;;
83717;SDS011;73701;52.234;21.288;2023-11-19T01:45:59;36.63;;;16.23;;
83717;SDS011;73701;52.234;21.288;2023-11-19T01:48:24;37.22;;;17.85;;
83717;SDS011;73701;52.234;21.288;2023-11-19T01:50:50;35.80;;;16.95;;
83717;SDS011;73701;52.234;21.288;2023-11-19T01:53:17;42.63;;;19.00;;
83717;SDS011;73701;52.234;21.288;2023-11-19T01:55:43;42.38;;;18.30;;
83717;SDS011;73701;52.234;21.288;2023-11-19T01:58:08;42.58;;;18.58;;
83717;SDS011;73701;52.234;21.288;2023-11-19T02:00:34;43.40;;;18.25;;
83717;SDS011;73701;52.234;21.288;2023-11-19T02:02:59;41.40;;;19.38;;
83717;SDS011;73701;52.234;21.288;2023-11-19T02:05:25;39.33;;;16.83;;
83717;SDS011;73701;52.234;21.288;2023-11-19T02:07:51;42.75;;;17.92;;
83717;SDS011;73701;52.234;21.288;2023-11-19T02:10:17;44.60;;;19.10;;
83717;SDS011;73701;52.234;21.288;2023-11-19T02:12:44;47.80;;;19.13;;
83717;SDS011;73701;52.234;21.288;2023-11-19T02:15:10;39.50;;;18.80;;
83717;SDS011;73701;52.234;21.288;2023-11-19T02:17:36;41.80;;;18.85;;
83717;SDS011;73701;52.234;21.288;2023-11-19T02:20:05;48.30;;;21.85;;
83717;SDS011;73701;52.234;21.288;2023-11-19T02:22:34;40.95;;;18.75;;
83717;SDS011;73701;52.234;21.288;2023-11-19T02:25:00;49.15;;;20.10;;
83717;SDS011;73701;52.234;21.288;2023-11-19T02:27:56;45.50;;;20.23;;
83717;SDS011;73701;52.234;21.288;2023-11-19T02:30:23;44.70;;;19.13;;
83717;SDS011;73701;52.234;21.288;2023-11-19T02:32:53;45.15;;;19.77;;
83717;SDS011;73701;52.234;21.288;2023-11-19T02:35:19;46.95;;;20.67;;
83717;SDS011;73701;52.234;21.288;2023-11-19T02:37:46;48.80;;;19.58;;
83717;SDS011;73701;52.234;21.288;2023-11-19T02:40:12;38.05;;;17.77;;
83717;SDS011;73701;52.234;21.288;2023-11-19T02:42:38;38.60;;;17.10;;
83717;SDS011;73701;52.234;21.288;2023-11-19T02:45:04;37.75;;;18.05;;
83717;SDS011;73701;52.234;21.288;2023-11-19T02:47:31;43.25;;;19.73;;
83717;SDS011;73701;52.234;21.288;2023-11-19T02:49:56;48.03;;;20.48;;
83717;SDS011;73701;52.234;21.288;2023-11-19T02:52:22;42.75;;;19.58;;
83717;SDS011;73701;52.234;21.288;2023-11-19T02:54:48;43.85;;;18.85;;
83717;SDS011;73701;52.234;21.288;2023-11-19T02:57:13;50.23;;;21.20;;
83717;SDS011;73701;52.234;21.288;2023-11-19T02:59:39;51.42;;;19.42;;
83717;SDS011;73701;52.234;21.288;2023-11-19T03:02:06;41.55;;;19.67;;
83717;SDS011;73701;52.234;21.288;2023-11-19T03:04:41;45.58;;;19.95;;
83717;SDS011;73701;52.234;21.288;2023-11-19T03:07:08;47.85;;;18.02;;
83717;SDS011;73701;52.234;21.288;2023-11-19T03:09:34;45.15;;;19.05;;
83717;SDS011;73701;52.234;21.288;2023-11-19T03:12:05;45.67;;;21.25;;
83717;SDS011;73701;52.234;21.288;2023-11-19T03:14:33;51.03;;;19.67;;
83717;SDS011;73701;52.234;21.288;2023-11-19T03:16:59;48.72;;;20.00;;
83717;SDS011;73701;52.234;21.288;2023-11-19T03:19:24;43.58;;;17.98;;
83717;SDS011;73701;52.234;21.288;2023-11-19T03:21:51;44.38;;;19.13;;
83717;SDS011;73701;52.234;21.288;2023-11-19T03:24:17;43.38;;;18.55;;
83717;SDS011;73701;52.234;21.288;2023-11-19T03:26:42;46.28;;;18.63;;
83717;SDS011;73701;52.234;21.288;2023-11-19T03:29:09;44.88;;;19.77;;
83717;SDS011;73701;52.234;21.288;2023-11-19T03:31:34;56.45;;;20.50;;
83717;SDS011;73701;52.234;21.288;2023-11-19T03:33:59;43.85;;;18.35;;
83717;SDS011;73701;52.234;21.288;2023-11-19T03:36:25;49.47;;;20.33;;
83717;SDS011;73701;52.234;21.288;2023-11-19T03:38:50;48.17;;;20.57;;
83717;SDS011;73701;52.234;21.288;2023-11-19T03:41:17;46.20;;;19.85;;
83717;SDS011;73701;52.234;21.288;2023-11-19T03:43:42;53.75;;;20.95;;
83717;SDS011;73701;52.234;21.288;2023-11-19T03:46:17;47.10;;;19.83;;
83717;SDS011;73701;52.234;21.288;2023-11-19T03:48:43;50.63;;;19.52;;
83717;SDS011;73701;52.234;21.288;2023-11-19T03:51:08;48.30;;;19.75;;
83717;SDS011;73701;52.234;21.288;2023-11-19T03:53:34;47.38;;;19.15;;
83717;SDS011;73701;52.234;21.288;2023-11-19T03:55:59;52.30;;;18.40;;
83717;SDS011;73701;52.234;21.288;2023-11-19T03:58:24;53.40;;;20.87;;
83717;SDS011;73701;52.234;21.288;2023-11-19T04:00:49;46.07;;;18.47;;
83717;SDS011;73701;52.234;21.288;2023-11-19T04:03:15;47.63;;;18.90;;
83717;SDS011;73701;52.234;21.288;2023-11-19T04:05:40;51.47;;;20.80;;
83717;SDS011;73701;52.234;21.288;2023-11-19T04:08:05;49.07;;;20.23;;
83717;SDS011;73701;52.234;21.288;2023-11-19T04:10:31;49.50;;;20.13;;
83717;SDS011;73701;52.234;21.288;2023-11-19T04:12:56;49.05;;;19.73;;
83717;SDS011;73701;52.234;21.288;2023-11-19T04:15:21;53.37;;;20.17;;
83717;SDS011;73701;52.234;21.288;2023-11-19T04:17:47;51.00;;;19.58;;
83717;SDS011;73701;52.234;21.288;2023-11-19T04:20:12;57.22;;;20.77;;
83717;SDS011;73701;52.234;21.288;2023-11-19T04:22:38;55.63;;;22.13;;
83717;SDS011;73701;52.234;21.288;2023-11-19T04:25:04;53.90;;;21.25;;
83717;SDS011;73701;52.234;21.288;2023-11-19T04:27:30;51.20;;;20.02;;
83717;SDS011;73701;52.234;21.288;2023-11-19T04:29:55;56.38;;;20.00;;
83717;SDS011;73701;52.234;21.288;2023-11-19T04:32:21;46.42;;;18.58;;
83717;SDS011;73701;52.234;21.288;2023-11-19T04:34:46;43.13;;;18.23;;
83717;SDS011;73701;52.234;21.288;2023-11-19T04:37:12;49.63;;;19.20;;
83717;SDS011;73701;52.234;21.288;2023-11-19T04:39:37;50.13;;;21.00;;
83717;SDS011;73701;52.234;21.288;2023-11-19T04:42:03;46.83;;;18.67;;
83717;SDS011;73701;52.234;21.288;2023-11-19T04:44:29;48.80;;;20.42;;
83717;SDS011;73701;52.234;21.288;2023-11-19T04:46:54;49.60;;;18.98;;
83717;SDS011;73701;52.234;21.288;2023-11-19T04:49:20;59.20;;;19.33;;
83717;SDS011;73701;52.234;21.288;2023-11-19T04:51:45;42.97;;;18.48;;
83717;SDS011;73701;52.234;21.288;2023-11-19T04:54:14;54.40;;;20.85;;
83717;SDS011;73701;52.234;21.288;2023-11-19T04:56:39;46.92;;;19.30;;
83717;SDS011;73701;52.234;21.288;2023-11-19T04:59:05;53.30;;;17.63;;
83717;SDS011;73701;52.234;21.288;2023-11-19T05:01:33;44.05;;;19.90;;
83717;SDS011;73701;52.234;21.288;2023-11-19T05:03:58;46.05;;;17.42;;
83717;SDS011;73701;52.234;21.288;2023-11-19T05:06:26;54.28;;;17.98;;
83717;SDS011;73701;52.234;21.288;2023-11-19T05:08:52;45.20;;;18.02;;
83717;SDS011;73701;52.234;21.288;2023-11-19T05:11:19;55.58;;;19.98;;
83717;SDS011;73701;52.234;21.288;2023-11-19T05:13:45;47.85;;;18.17;;
83717;SDS011;73701;52.234;21.288;2023-11-19T05:16:10;50.73;;;18.27;;
83717;SDS011;73701;52.234;21.288;2023-11-19T05:18:35;40.23;;;17.33;;
83717;SDS011;73701;52.234;21.288;2023-11-19T05:21:00;48.70;;;17.17;;
83717;SDS011;73701;52.234;21.288;2023-11-19T05:23:26;43.30;;;18.17;;
83717;SDS011;73701;52.234;21.288;2023-11-19T05:25:51;53.10;;;19.10;;
83717;SDS011;73701;52.234;21.288;2023-11-19T05:28:16;50.00;;;18.87;;
83717;SDS011;73701;52.234;21.288;2023-11-19T05:30:42;48.73;;;19.03;;
83717;SDS011;73701;52.234;21.288;2023-11-19T05:33:07;51.70;;;19.63;;
83717;SDS011;73701;52.234;21.288;2023-11-19T05:35:34;46.80;;;18.70;;
83717;SDS011;73701;52.234;21.288;2023-11-19T05:37:59;45.88;;;18.30;;
83717;SDS011;73701;52.234;21.288;2023-11-19T05:40:25;40.83;;;18.77;;
83717;SDS011;73701;52.234;21.288;2023-11-19T05:42:50;49.07;;;19.17;;
83717;SDS011;73701;52.234;21.288;2023-11-19T05:45:15;46.90;;;18.30;;
83717;SDS011;73701;52.234;21.288;2023-11-19T05:47:41;48.88;;;19.48;;
83717;SDS011;73701;52.234;21.288;2023-11-19T05:50:06;51.22;;;20.75;;
83717;SDS011;73701;52.234;21.288;2023-11-19T05:52:33;53.03;;;18.42;;
83717;SDS011;73701;52.234;21.288;2023-11-19T05:55:00;36.95;;;17.20;;
83717;SDS011;73701;52.234;21.288;2023-11-19T05:57:29;47.53;;;18.65;;
83717;SDS011;73701;52.234;21.288;2023-11-19T05:59:54;48.10;;;18.20;;
83717;SDS011;73701;52.234;21.288;2023-11-19T06:02:19;44.60;;;18.73;;
83717;SDS011;73701;52.234;21.288;2023-11-19T06:04:45;46.13;;;18.50;;
83717;SDS011;73701;52.234;21.288;2023-11-19T06:07:12;50.70;;;19.90;;
83717;SDS011;73701;52.234;21.288;2023-11-19T06:09:38;44.25;;;18.23;;
83717;SDS011;73701;52.234;21.288;2023-11-19T06:12:05;45.70;;;17.05;;
83717;SDS011;73701;52.234;21.288;2023-11-19T06:14:31;48.80;;;18.40;;
83717;SDS011;73701;52.234;21.288;2023-11-19T06:16:56;55.70;;;19.83;;
83717;SDS011;73701;52.234;21.288;2023-11-19T06:19:22;51.38;;;18.50;;
83717;SDS011;73701;52.234;21.288;2023-11-19T06:21:49;51.78;;;18.63;;
83717;SDS011;73701;52.234;21.288;2023-11-19T06:24:14;46.23;;;18.57;;
83717;SDS011;73701;52.234;21.288;2023-11-19T06:26:40;49.07;;;15.73;;
83717;SDS011;73701;52.234;21.288;2023-11-19T06:29:05;44.97;;;18.10;;
83717;SDS011;73701;52.234;21.288;2023-11-19T06:31:31;46.83;;;18.33;;
83717;SDS011;73701;52.234;21.288;2023-11-19T06:33:56;48.53;;;16.77;;
83717;SDS011;73701;52.234;21.288;2023-11-19T06:36:21;45.17;;;16.77;;
83717;SDS011;73701;52.234;21.288;2023-11-19T06:38:46;43.33;;;17.43;;
83717;SDS011;73701;52.234;21.288;2023-11-19T06:41:12;51.77;;;19.63;;
83717;SDS011;73701;52.234;21.288;2023-11-19T06:43:37;44.73;;;16.03;;
83717;SDS011;73701;52.234;21.288;2023-11-19T06:46:03;54.05;;;20.75;;
83717;SDS011;73701;52.234;21.288;2023-11-19T06:48:31;45.67;;;18.10;;
83717;SDS011;73701;52.234;21.288;2023-11-19T06:50:57;44.28;;;16.50;;
83717;SDS011;73701;52.234;21.288;2023-11-19T06:53:22;48.03;;;18.13;;
83717;SDS011;73701;52.234;21.288;2023-11-19T06:55:47;49.35;;;17.45;;
83717;SDS011;73701;52.234;21.288;2023-11-19T06:58:13;45.90;;;16.33;;
83717;SDS011;73701;52.234;21.288;2023-11-19T07:00:38;34.07;;;14.77;;
83717;SDS011;73701;52.234;21.288;2023-11-19T07:03:03;40.43;;;16.03;;
83717;SDS011;73701;52.234;21.288;2023-11-19T07:05:30;38.55;;;16.02;;
83717;SDS011;73701;52.234;21.288;2023-11-19T07:07:56;31.52;;;14.18;;
83717;SDS011;73701;52.234;21.288;2023-11-19T07:10:21;33.97;;;13.97;;
83717;SDS011;73701;52.234;21.288;2023-11-19T07:12:46;28.93;;;13.20;;
83717;SDS011;73701;52.234;21.288;2023-11-19T07:15:15;37.88;;;15.82;;
83717;SDS011;73701;52.234;21.288;2023-11-19T07:17:42;38.03;;;17.25;;
83717;SDS011;73701;52.234;21.288;2023-11-19T07:20:09;37.72;;;15.75;;
83717;SDS011;73701;52.234;21.288;2023-11-19T07:22:38;32.20;;;14.77;;
83717;SDS011;73701;52.234;21.288;2023-11-19T07:25:04;30.00;;;14.07;;
83717;SDS011;73701;52.234;21.288;2023-11-19T07:27:30;35.17;;;14.00;;
83717;SDS011;73701;52.234;21.288;2023-11-19T07:29:55;31.97;;;14.10;;
83717;SDS011;73701;52.234;21.288;2023-11-19T07:32:21;25.63;;;12.05;;
83717;SDS011;73701;52.234;21.288;2023-11-19T07:34:46;29.63;;;14.30;;
83717;SDS011;73701;52.234;21.288;2023-11-19T07:37:11;24.67;;;13.27;;
83717;SDS011;73701;52.234;21.288;2023-11-19T07:39:37;24.63;;;11.55;;
83717;SDS011;73701;52.234;21.288;2023-11-19T07:42:05;30.75;;;14.93;;
83717;SDS011;73701;52.234;21.288;2023-11-19T07:44:31;27.58;;;14.15;;
83717;SDS011;73701;52.234;21.288;2023-11-19T07:46:57;29.80;;;14.32;;
83717;SDS011;73701;52.234;21.288;2023-11-19T07:49:23;26.42;;;12.93;;
83717;SDS011;73701;52.234;21.288;2023-11-19T07:51:48;26.33;;;12.37;;
83717;SDS011;73701;52.234;21.288;2023-11-19T07:54:14;23.03;;;12.20;;
83717;SDS011;73701;52.234;21.288;2023-11-19T07:56:39;24.10;;;11.90;;
83717;SDS011;73701;52.234;21.288;2023-11-19T07:59:05;23.42;;;12.00;;
83717;SDS011;73701;52.234;21.288;2023-11-19T08:01:30;25.15;;;12.38;;
83717;SDS011;73701;52.234;21.288;2023-11-19T08:03:56;26.02;;;12.05;;
83717;SDS011;73701;52.234;21.288;2023-11-19T08:06:21;24.40;;;11.57;;
83717;SDS011;73701;52.234;21.288;2023-11-19T08:08:47;24.17;;;12.43;;
83717;SDS011;73701;52.234;21.288;2023-11-19T08:11:13;22.27;;;11.13;;
83717;SDS011;73701;52.234;21.288;2023-11-19T08:13:38;25.08;;;10.35;;
83717;SDS011;73701;52.234;21.288;2023-11-19T08:16:04;17.52;;;10.50;;
83717;SDS011;73701;52.234;21.288;2023-11-19T08:18:29;22.80;;;10.70;;
83717;SDS011;73701;52.234;21.288;2023-11-19T08:20:55;24.80;;;11.63;;
83717;SDS011;73701;52.234;21.288;2023-11-19T08:23:21;21.05;;;9.65;;
83717;SDS011;73701;52.234;21.288;2023-11-19T08:25:48;18.35;;;8.90;;
83717;SDS011;73701;52.234;21.288;2023-11-19T08:28:14;23.83;;;10.50;;
83717;SDS011;73701;52.234;21.288;2023-11-19T08:30:40;18.88;;;10.27;;
83717;SDS011;73701;52.234;21.288;2023-11-19T08:33:05;19.67;;;10.02;;
83717;SDS011;73701;52.234;21.288;2023-11-19T08:35:32;21.58;;;11.10;;
83717;SDS011;73701;52.234;21.288;2023-11-19T08:37:57;21.88;;;10.05;;
83717;SDS011;73701;52.234;21.288;2023-11-19T08:40:24;18.52;;;10.05;;
83717;SDS011;73701;52.234;21.288;2023-11-19T08:42:50;18.77;;;9.57;;
83717;SDS011;73701;52.234;21.288;2023-11-19T08:45:16;22.02;;;10.02;;
83717;SDS011;73701;52.234;21.288;2023-11-19T08:47:41;19.25;;;9.63;;
83717;SDS011;73701;52.234;21.288;2023-11-19T08:50:07;20.27;;;10.70;;
83717;SDS011;73701;52.234;21.288;2023-11-19T08:52:33;21.50;;;10.55;;
83717;SDS011;73701;52.234;21.288;2023-11-19T08:54:58;18.25;;;9.43;;
83717;SDS011;73701;52.234;21.288;2023-11-19T08:57:24;20.03;;;10.87;;
83717;SDS011;73701;52.234;21.288;2023-11-19T08:59:49;16.03;;;9.60;;
83717;SDS011;73701;52.234;21.288;2023-11-19T09:02:14;17.83;;;9.80;;
83717;SDS011;73701;52.234;21.288;2023-11-19T09:04:40;25.27;;;11.10;;
83717;SDS011;73701;52.234;21.288;2023-11-19T09:07:06;19.85;;;10.23;;
83717;SDS011;73701;52.234;21.288;2023-11-19T09:09:32;14.27;;;8.48;;
83717;SDS011;73701;52.234;21.288;2023-11-19T09:12:00;20.83;;;11.35;;
83717;SDS011;73701;52.234;21.288;2023-11-19T09:14:26;17.48;;;9.63;;
83717;SDS011;73701;52.234;21.288;2023-11-19T09:16:51;22.15;;;10.13;;
83717;SDS011;73701;52.234;21.288;2023-11-19T09:19:17;19.63;;;10.90;;
83717;SDS011;73701;52.234;21.288;2023-11-19T09:21:43;20.90;;;9.77;;
83717;SDS011;73701;52.234;21.288;2023-11-19T09:24:09;19.33;;;10.40;;
83717;SDS011;73701;52.234;21.288;2023-11-19T09:26:34;21.42;;;12.35;;
83717;SDS011;73701;52.234;21.288;2023-11-19T09:29:01;22.38;;;10.43;;
83717;SDS011;73701;52.234;21.288;2023-11-19T09:31:26;30.33;;;15.93;;
83717;SDS011;73701;52.234;21.288;2023-11-19T09:33:52;32.13;;;16.47;;
83717;SDS011;73701;52.234;21.288;2023-11-19T09:36:17;19.10;;;11.23;;
83717;SDS011;73701;52.234;21.288;2023-11-19T09:38:44;23.92;;;10.32;;
83717;SDS011;73701;52.234;21.288;2023-11-19T09:41:09;20.30;;;11.18;;
83717;SDS011;73701;52.234;21.288;2023-11-19T09:43:36;20.50;;;10.35;;
83717;SDS011;73701;52.234;21.288;2023-11-19T09:46:04;25.67;;;14.15;;
83717;SDS011;73701;52.234;21.288;2023-11-19T09:48:36;29.83;;;18.52;;
83717;SDS011;73701;52.234;21.288;2023-11-19T09:51:03;34.53;;;18.50;;
83717;SDS011;73701;52.234;21.288;2023-11-19T09:53:30;25.77;;;16.35;;
83717;SDS011;73701;52.234;21.288;2023-11-19T09:55:56;25.00;;;13.63;;
83717;SDS011;73701;52.234;21.288;2023-11-19T09:58:25;24.20;;;14.75;;
83717;SDS011;73701;52.234;21.288;2023-11-19T10:00:51;21.27;;;13.57;;
83717;SDS011;73701;52.234;21.288;2023-11-19T10:03:19;23.35;;;13.77;;
83717;SDS011;73701;52.234;21.288;2023-11-19T10:05:48;21.60;;;11.77;;
83717;SDS011;73701;52.234;21.288;2023-11-19T10:08:13;16.77;;;9.95;;
83717;SDS011;73701;52.234;21.288;2023-11-19T10:10:39;22.40;;;14.57;;
83717;SDS011;73701;52.234;21.288;2023-11-19T10:13:06;20.80;;;12.52;;
83717;SDS011;73701;52.234;21.288;2023-11-19T10:15:35;20.65;;;12.60;;
83717;SDS011;73701;52.234;21.288;2023-11-19T10:18:01;17.95;;;9.82;;
83717;SDS011;73701;52.234;21.288;2023-11-19T10:20:27;18.58;;;10.13;;
83717;SDS011;73701;52.234;21.288;2023-11-19T10:22:56;14.80;;;9.23;;
83717;SDS011;73701;52.234;21.288;2023-11-19T10:25:25;20.33;;;11.43;;
83717;SDS011;73701;52.234;21.288;2023-11-19T10:27:51;18.90;;;10.05;;
83717;SDS011;73701;52.234;21.288;2023-11-19T10:30:20;17.40;;;9.07;;
83717;SDS011;73701;52.234;21.288;2023-11-19T10:33:02;19.10;;;9.00;;
83717;SDS011;73701;52.234;21.288;2023-11-19T10:35:35;17.30;;;9.30;;
83717;SDS011;73701;52.234;21.288;2023-11-19T10:38:14;18.35;;;9.48;;
83717;SDS011;73701;52.234;21.288;2023-11-19T10:40:43;20.67;;;10.45;;
83717;SDS011;73701;52.234;21.288;2023-11-19T10:43:08;18.38;;;9.65;;
83717;SDS011;73701;52.234;21.288;2023-11-19T10:45:34;22.77;;;12.02;;
83717;SDS011;73701;52.234;21.288;2023-11-19T10:48:04;21.45;;;10.52;;
83717;SDS011;73701;52.234;21.288;2023-11-19T10:50:33;25.20;;;12.65;;
83717;SDS011;73701;52.234;21.288;2023-11-19T10:53:01;23.33;;;13.82;;
83717;SDS011;73701;52.234;21.288;2023-11-19T10:55:29;26.73;;;13.93;;
83717;SDS011;73701;52.234;21.288;2023-11-19T10:57:59;24.08;;;12.32;;
83717;SDS011;73701;52.234;21.288;2023-11-19T11:02:55;22.73;;;12.57;;
83717;SDS011;73701;52.234;21.288;2023-11-19T11:05:24;29.00;;;15.18;;
83717;SDS011;73701;52.234;21.288;2023-11-19T11:07:51;52.08;;;20.48;;
83717;SDS011;73701;52.234;21.288;2023-11-19T11:10:18;58.95;;;22.17;;
83717;SDS011;73701;52.234;21.288;2023-11-19T11:12:47;39.08;;;15.63;;
83717;SDS011;73701;52.234;21.288;2023-11-19T11:15:15;34.35;;;14.70;;
83717;SDS011;73701;52.234;21.288;2023-11-19T11:17:43;26.52;;;13.82;;
83717;SDS011;73701;52.234;21.288;2023-11-19T11:20:10;22.70;;;12.77;;
83717;SDS011;73701;52.234;21.288;2023-11-19T11:22:42;26.88;;;12.82;;
83717;SDS011;73701;52.234;21.288;2023-11-19T11:25:31;24.00;;;13.20;;
83717;SDS011;73701;52.234;21.288;2023-11-19T11:28:12;26.17;;;12.65;;
83717;SDS011;73701;52.234;21.288;2023-11-19T11:30:51;24.42;;;13.32;;
83717;SDS011;73701;52.234;21.288;2023-11-19T11:38:44;22.75;;;10.98;;
83717;SDS011;73701;52.234;21.288;2023-11-19T11:41:20;28.25;;;11.32;;
83717;SDS011;73701;52.234;21.288;2023-11-19T11:48:57;26.60;;;11.23;;
83717;SDS011;73701;52.234;21.288;2023-11-19T11:54:11;24.73;;;12.63;;
83717;SDS011;73701;52.234;21.288;2023-11-19T11:56:37;25.95;;;13.68;;
83717;SDS011;73701;52.234;21.288;2023-11-19T11:59:18;22.65;;;12.73;;
83717;SDS011;73701;52.234;21.288;2023-11-19T12:01:59;21.90;;;12.50;;
83717;SDS011;73701;52.234;21.288;2023-11-19T12:04:28;21.15;;;10.75;;
83717;SDS011;73701;52.234;21.288;2023-11-19T12:09:52;27.05;;;12.70;;
83717;SDS011;73701;52.234;21.288;2023-11-19T12:12:26;28.80;;;13.43;;
83717;SDS011;73701;52.234;21.288;2023-11-19T12:19:57;24.00;;;11.93;;
83717;SDS011;73701;52.234;21.288;2023-11-19T12:22:24;23.42;;;11.18;;
83717;SDS011;73701;52.234;21.288;2023-11-19T12:24:50;30.83;;;16.15;;
83717;SDS011;73701;52.234;21.288;2023-11-19T12:27:16;24.98;;;12.90;;
83717;SDS011;73701;52.234;21.288;2023-11-19T12:29:43;22.45;;;11.75;;
83717;SDS011;73701;52.234;21.288;2023-11-19T12:32:09;23.23;;;12.18;;
83717;SDS011;73701;52.234;21.288;2023-11-19T12:34:34;28.73;;;14.40;;
83717;SDS011;73701;52.234;21.288;2023-11-19T12:37:03;24.55;;;13.15;;
83717;SDS011;73701;52.234;21.288;2023-11-19T12:39:32;23.88;;;13.10;;
83717;SDS011;73701;52.234;21.288;2023-11-19T12:41:57;25.40;;;14.07;;
83717;SDS011;73701;52.234;21.288;2023-11-19T12:44:24;26.80;;;15.00;;
83717;SDS011;73701;52.234;21.288;2023-11-19T12:47:02;21.65;;;13.55;;
83717;SDS011;73701;52.234;21.288;2023-11-19T12:49:34;25.23;;;12.27;;
83717;SDS011;73701;52.234;21.288;2023-11-19T12:52:00;19.63;;;11.45;;
83717;SDS011;73701;52.234;21.288;2023-11-19T12:54:35;25.02;;;13.13;;
83717;SDS011;73701;52.234;21.288;2023-11-19T12:57:01;23.60;;;12.60;;
83717;SDS011;73701;52.234;21.288;2023-11-19T12:59:27;22.90;;;11.98;;
83717;SDS011;73701;52.234;21.288;2023-11-19T13:04:22;44.53;;;19.90;;
83717;SDS011;73701;52.234;21.288;2023-11-19T13:06:49;28.15;;;13.88;;
83717;SDS011;73701;52.234;21.288;2023-11-19T13:11:50;23.75;;;13.25;;
83717;SDS011;73701;52.234;21.288;2023-11-19T13:14:16;26.23;;;11.98;;
83717;SDS011;73701;52.234;21.288;2023-11-19T13:16:42;28.38;;;14.18;;
83717;SDS011;73701;52.234;21.288;2023-11-19T13:19:07;30.20;;;13.70;;
83717;SDS011;73701;52.234;21.288;2023-11-19T13:21:33;61.22;;;18.60;;
83717;SDS011;73701;52.234;21.288;2023-11-19T13:23:59;63.17;;;21.77;;
83717;SDS011;73701;52.234;21.288;2023-11-19T13:26:25;48.00;;;17.48;;
83717;SDS011;73701;52.234;21.288;2023-11-19T13:28:50;30.13;;;13.10;;
83717;SDS011;73701;52.234;21.288;2023-11-19T13:31:16;23.55;;;12.73;;
83717;SDS011;73701;52.234;21.288;2023-11-19T13:33:42;27.65;;;14.38;;
83717;SDS011;73701;52.234;21.288;2023-11-19T13:36:07;38.30;;;14.18;;
83717;SDS011;73701;52.234;21.288;2023-11-19T13:38:33;28.00;;;13.50;;
83717;SDS011;73701;52.234;21.288;2023-11-19T13:41:00;27.73;;;13.02;;
83717;SDS011;73701;52.234;21.288;2023-11-19T13:43:26;42.50;;;18.35;;
83717;SDS011;73701;52.234;21.288;2023-11-19T13:45:53;28.13;;;15.10;;
83717;SDS011;73701;52.234;21.288;2023-11-19T13:48:19;43.25;;;16.60;;
83717;SDS011;73701;52.234;21.288;2023-11-19T13:50:44;26.30;;;13.55;;
83717;SDS011;73701;52.234;21.288;2023-11-19T13:53:10;25.73;;;12.60;;
83717;SDS011;73701;52.234;21.288;2023-11-19T13:55:35;25.27;;;12.48;;
83717;SDS011;73701;52.234;21.288;2023-11-19T13:58:01;27.55;;;13.00;;
83717;SDS011;73701;52.234;21.288;2023-11-19T14:00:26;23.20;;;12.47;;
83717;SDS011;73701;52.234;21.288;2023-11-19T14:02:52;29.17;;;12.60;;
83717;SDS011;73701;52.234;21.288;2023-11-19T14:05:17;23.58;;;12.55;;
83717;SDS011;73701;52.234;21.288;2023-11-19T14:07:43;28.10;;;13.65;;
83717;SDS011;73701;52.234;21.288;2023-11-19T14:10:09;24.27;;;13.85;;
83717;SDS011;73701;52.234;21.288;2023-11-19T14:12:36;26.52;;;13.35;;
83717;SDS011;73701;52.234;21.288;2023-11-19T14:15:02;29.52;;;15.98;;
83717;SDS011;73701;52.234;21.288;2023-11-19T14:17:31;32.47;;;17.35;;
83717;SDS011;73701;52.234;21.288;2023-11-19T14:19:57;28.52;;;13.43;;
83717;SDS011;73701;52.234;21.288;2023-11-19T14:22:22;32.57;;;17.70;;
83717;SDS011;73701;52.234;21.288;2023-11-19T14:24:48;38.53;;;18.00;;
83717;SDS011;73701;52.234;21.288;2023-11-19T14:27:13;42.50;;;17.52;;
83717;SDS011;73701;52.234;21.288;2023-11-19T14:29:38;36.90;;;15.90;;
83717;SDS011;73701;52.234;21.288;2023-11-19T14:32:05;34.00;;;15.57;;
83717;SDS011;73701;52.234;21.288;2023-11-19T14:34:31;28.60;;;13.40;;